createdAt,value
2019-05-06T00:00:30.420Z,15.37
2019-05-06T00:02:58.926Z,18.07
2019-05-06T00:05:27.495Z,19.57
2019-05-06T00:07:55.986Z,18.10
2019-05-06T00:10:28.490Z,17.97
2019-05-06T00:12:57.639Z,24.43
2019-05-06T00:15:26.922Z,18.83
2019-05-06T00:17:55.399Z,20.87
2019-05-06T00:20:24.542Z,19.30
2019-05-06T00:22:56.393Z,17.23
2019-05-06T00:25:54.309Z,18.20
2019-05-06T00:28:28.299Z,16.47
2019-05-06T00:31:09.536Z,19.13
2019-05-06T00:33:28.616Z,19.93
2019-05-06T00:35:58.804Z,15.77
2019-05-06T00:38:27.310Z,19.83
2019-05-06T00:40:59.174Z,18.13
2019-05-06T00:43:27.810Z,22.03
2019-05-06T00:45:56.398Z,15.83
2019-05-06T00:48:25.135Z,20.63
2019-05-06T00:50:53.751Z,17.97
2019-05-06T00:53:24.468Z,21.83
2019-05-06T00:55:53.786Z,12.27
2019-05-06T00:58:23.847Z,21.43
2019-05-06T01:00:53.888Z,18.43
2019-05-06T01:03:23.787Z,16.80
2019-05-06T01:05:54.272Z,16.23
2019-05-06T01:08:23.977Z,13.03
2019-05-06T01:10:54.560Z,19.27
2019-05-06T01:13:37.379Z,15.57
2019-05-06T01:16:06.400Z,16.33
2019-05-06T01:18:34.986Z,17.60
2019-05-06T01:21:09.479Z,12.77
2019-05-06T01:23:41.133Z,15.80
2019-05-06T01:26:09.767Z,11.93
2019-05-06T01:28:38.395Z,14.20
2019-05-06T01:31:06.896Z,12.73
2019-05-06T01:33:35.452Z,19.70
2019-05-06T01:36:04.576Z,15.20
2019-05-06T01:38:53.526Z,24.23
2019-05-06T01:41:46.374Z,11.87
2019-05-06T01:44:14.780Z,18.90
2019-05-06T01:46:44.763Z,14.23
2019-05-06T01:49:13.770Z,16.00
2019-05-06T01:51:43.799Z,20.17
2019-05-06T01:54:14.173Z,17.37
2019-05-06T01:56:44.464Z,14.50
2019-05-06T01:59:13.981Z,14.93
2019-05-06T02:01:54.846Z,21.67
2019-05-06T02:04:13.806Z,15.83
2019-05-06T02:06:43.799Z,16.17
2019-05-06T02:09:16.277Z,18.53
2019-05-06T02:11:47.745Z,13.00
2019-05-06T02:14:15.436Z,19.63
2019-05-06T02:16:43.931Z,14.37
2019-05-06T02:19:14.687Z,14.03
2019-05-06T02:22:08.236Z,16.37
2019-05-06T02:24:53.636Z,13.67
2019-05-06T02:27:24.260Z,15.17
2019-05-06T02:30:00.901Z,19.07
2019-05-06T02:32:51.721Z,15.43
2019-05-06T02:35:26.412Z,13.57
2019-05-06T02:37:54.983Z,14.80
2019-05-06T02:40:25.810Z,12.27
2019-05-06T02:42:55.151Z,15.73
2019-05-06T02:45:24.463Z,14.77
2019-05-06T02:48:13.948Z,17.43
2019-05-06T02:51:17.541Z,14.77
2019-05-06T02:53:46.223Z,20.30
2019-05-06T02:56:14.795Z,14.33
2019-05-06T02:58:43.804Z,17.67
2019-05-06T03:01:13.547Z,16.70
2019-05-06T03:03:43.676Z,16.37
2019-05-06T03:06:13.267Z,22.37
2019-05-06T03:08:43.432Z,15.43
2019-05-06T03:11:13.549Z,19.80
2019-05-06T03:13:43.723Z,18.60
2019-05-06T03:16:14.237Z,15.47
2019-05-06T03:18:43.457Z,15.10
2019-05-06T03:21:37.137Z,13.37
2019-05-06T03:24:24.163Z,11.63
2019-05-06T03:26:57.001Z,21.03
2019-05-06T03:29:25.332Z,13.77
2019-05-06T03:31:56.272Z,14.03
2019-05-06T03:34:49.479Z,18.60
2019-05-06T03:36:56.551Z,21.97
2019-05-06T03:39:25.562Z,17.97
2019-05-06T03:41:54.060Z,18.53
2019-05-06T03:44:23.986Z,24.03
2019-05-06T03:47:13.672Z,25.33
2019-05-06T03:49:44.675Z,20.97
2019-05-06T03:52:13.676Z,22.77
2019-05-06T03:54:45.342Z,23.83
2019-05-06T03:57:14.047Z,20.00
2019-05-06T03:59:43.792Z,15.17
2019-05-06T04:02:13.358Z,16.70
2019-05-06T04:04:43.931Z,16.67
2019-05-06T04:07:14.041Z,15.10
2019-05-06T04:09:44.195Z,16.17
2019-05-06T04:12:13.635Z,14.43
2019-05-06T04:14:43.338Z,17.50
2019-05-06T04:17:23.633Z,18.93
2019-05-06T04:19:55.957Z,13.27
2019-05-06T04:22:37.478Z,16.73
2019-05-06T04:25:34.604Z,15.03
2019-05-06T04:28:12.873Z,13.87
2019-05-06T04:30:42.810Z,10.87
2019-05-06T04:33:16.882Z,11.90
2019-05-06T04:35:43.099Z,10.97
2019-05-06T04:38:13.914Z,20.47
2019-05-06T04:40:43.987Z,10.77
2019-05-06T04:43:13.526Z,13.90
2019-05-06T04:45:43.307Z,13.37
2019-05-06T04:48:14.405Z,13.50
2019-05-06T04:50:44.294Z,20.30
2019-05-06T04:53:13.812Z,11.60
2019-05-06T04:55:43.869Z,11.40
2019-05-06T04:58:13.512Z,20.33
2019-05-06T05:00:44.574Z,15.27
2019-05-06T05:03:13.928Z,17.53
2019-05-06T05:05:44.765Z,16.43
2019-05-06T05:08:13.788Z,10.97
2019-05-06T05:10:53.014Z,15.33
2019-05-06T05:13:43.338Z,12.90
2019-05-06T05:16:33.179Z,14.07
2019-05-06T05:19:05.120Z,16.00
2019-05-06T05:21:33.824Z,15.87
2019-05-06T05:24:02.418Z,17.17
2019-05-06T05:26:32.211Z,9.47
2019-05-06T05:29:02.810Z,13.10
2019-05-06T05:31:33.195Z,15.37
2019-05-06T05:34:02.315Z,16.40
2019-05-06T05:36:32.865Z,13.57
2019-05-06T05:39:03.321Z,8.63
2019-05-06T05:41:33.129Z,14.83
2019-05-06T05:44:13.754Z,10.10
2019-05-06T05:46:43.876Z,13.60
2019-05-06T05:49:42.067Z,12.83
2019-05-06T05:52:12.747Z,11.67
2019-05-06T05:54:42.371Z,12.20
2019-05-06T05:57:11.884Z,13.63
2019-05-06T05:59:42.207Z,14.07
2019-05-06T06:02:12.840Z,14.43
2019-05-06T06:04:53.722Z,17.73
2019-05-06T06:07:12.499Z,10.77
2019-05-06T06:09:49.867Z,12.47
2019-05-06T06:12:18.482Z,14.90
2019-05-06T06:15:06.531Z,11.53
2019-05-06T06:17:51.952Z,13.03
2019-05-06T06:20:58.402Z,8.07
2019-05-06T06:23:33.543Z,9.70
2019-05-06T06:26:04.055Z,11.37
2019-05-06T06:28:33.354Z,10.73
2019-05-06T06:31:12.106Z,12.97
2019-05-06T06:33:42.849Z,13.33
2019-05-06T06:36:29.744Z,12.10
2019-05-06T06:39:12.449Z,13.50
2019-05-06T06:41:42.373Z,7.90
2019-05-06T06:44:14.922Z,13.70
2019-05-06T06:46:43.636Z,9.97
2019-05-06T06:49:12.726Z,9.93
2019-05-06T06:51:42.489Z,13.20
2019-05-06T06:54:12.321Z,10.20
2019-05-06T06:57:01.890Z,8.27
2019-05-06T06:59:33.200Z,12.97
2019-05-06T07:02:07.476Z,12.80
2019-05-06T07:04:43.105Z,10.03
2019-05-06T07:07:13.039Z,17.77
2019-05-06T07:09:42.043Z,12.67
2019-05-06T07:12:13.189Z,12.60
2019-05-06T07:14:42.819Z,10.00
2019-05-06T07:17:13.336Z,17.80
2019-05-06T07:19:47.640Z,11.27
2019-05-06T07:22:16.156Z,14.67
2019-05-06T07:24:44.847Z,8.77
2019-05-06T07:27:18.405Z,10.03
2019-05-06T07:29:48.802Z,8.50
2019-05-06T07:32:17.441Z,11.90
2019-05-06T07:34:46.040Z,10.50
2019-05-06T07:37:14.613Z,10.27
2019-05-06T07:39:43.750Z,13.50
2019-05-06T07:42:18.310Z,9.57
2019-05-06T07:45:14.439Z,7.73
2019-05-06T07:47:48.361Z,9.20
2019-05-06T07:50:16.875Z,10.03
2019-05-06T07:53:03.609Z,7.23
2019-05-06T07:55:32.765Z,11.80
2019-05-06T07:58:02.942Z,10.17
2019-05-06T08:00:32.780Z,14.37
2019-05-06T08:03:02.522Z,7.23
2019-05-06T08:05:32.475Z,14.03
2019-05-06T08:08:03.530Z,8.83
2019-05-06T08:10:33.149Z,9.70
2019-05-06T08:13:02.796Z,13.03
2019-05-06T08:15:32.565Z,7.83
2019-05-06T08:18:03.361Z,10.63
2019-05-06T08:20:38.709Z,12.00
2019-05-06T08:23:28.315Z,10.73
2019-05-06T08:26:09.204Z,10.57
2019-05-06T08:28:38.563Z,7.30
2019-05-06T08:30:59.613Z,8.40
2019-05-06T08:33:28.217Z,7.93
2019-05-06T08:36:08.861Z,10.40
2019-05-06T08:38:28.072Z,11.97
2019-05-06T08:40:56.670Z,11.43
2019-05-06T08:43:25.189Z,9.27
2019-05-06T08:45:53.726Z,11.03
2019-05-06T08:48:22.331Z,9.73
2019-05-06T08:50:56.249Z,7.40
2019-05-06T08:53:37.982Z,12.10
2019-05-06T08:56:08.078Z,12.97
2019-05-06T08:58:45.882Z,12.70
2019-05-06T09:01:38.159Z,8.20
2019-05-06T09:04:12.492Z,7.33
2019-05-06T09:06:37.462Z,8.37
2019-05-06T09:09:07.636Z,10.40
2019-05-06T09:11:36.389Z,8.83
2019-05-06T09:14:05.003Z,7.03
2019-05-06T09:16:33.515Z,8.83
2019-05-06T09:19:04.290Z,6.07
2019-05-06T09:21:33.566Z,9.53
2019-05-06T09:24:02.546Z,9.50
2019-05-06T09:26:43.137Z,10.57
2019-05-06T09:29:18.333Z,8.63
2019-05-06T09:31:52.053Z,10.97
2019-05-06T09:34:26.997Z,11.33
2019-05-06T09:37:13.303Z,6.77
2019-05-06T09:39:44.117Z,5.80
2019-05-06T09:42:13.597Z,9.93
2019-05-06T09:44:43.003Z,9.67
2019-05-06T09:47:43.137Z,8.77
2019-05-06T09:50:14.756Z,8.27
2019-05-06T09:52:43.858Z,7.53
2019-05-06T09:55:35.541Z,7.17
2019-05-06T09:58:05.621Z,8.07
2019-05-06T10:00:38.976Z,13.20
2019-05-06T10:03:07.496Z,9.23
2019-05-06T10:05:36.077Z,9.73
2019-05-06T10:08:05.009Z,8.13
2019-05-06T10:10:33.641Z,9.80
2019-05-06T10:13:02.713Z,5.70
2019-05-06T10:15:32.629Z,13.57
2019-05-06T10:18:07.871Z,7.20
2019-05-06T10:20:44.965Z,9.43
2019-05-06T10:23:13.859Z,8.47
2019-05-06T10:25:44.028Z,9.53
2019-05-06T10:28:27.168Z,7.87
2019-05-06T10:30:55.804Z,11.03
2019-05-06T10:33:25.646Z,10.53
2019-05-06T10:35:56.250Z,11.17
2019-05-06T10:38:52.740Z,11.60
2019-05-06T10:41:25.331Z,8.87
2019-05-06T10:44:14.183Z,9.20
2019-05-06T10:46:43.134Z,8.77
2019-05-06T10:49:13.169Z,12.00
2019-05-06T10:52:02.200Z,13.27
2019-05-06T10:54:31.865Z,19.43
2019-05-06T10:57:32.860Z,13.90
2019-05-06T11:00:01.642Z,10.57
2019-05-06T11:02:58.941Z,13.30
2019-05-06T11:05:27.435Z,11.23
2019-05-06T11:07:56.021Z,10.87
2019-05-06T11:10:29.932Z,8.47
2019-05-06T11:12:55.208Z,11.07
2019-05-06T11:15:23.701Z,9.40
2019-05-06T11:17:52.196Z,11.53
2019-05-06T11:20:24.118Z,11.17
2019-05-06T11:22:53.333Z,10.87
2019-05-06T11:25:23.030Z,9.67
2019-05-06T11:27:52.644Z,7.63
2019-05-06T11:30:39.754Z,8.13
2019-05-06T11:33:27.910Z,6.23
2019-05-06T11:36:02.242Z,6.27
2019-05-06T11:38:32.260Z,9.33
2019-05-06T11:41:01.776Z,8.10
2019-05-06T11:43:32.481Z,8.13
2019-05-06T11:46:01.555Z,6.73
2019-05-06T11:48:32.614Z,6.53
2019-05-06T11:51:03.270Z,5.73
2019-05-06T11:53:32.631Z,6.47
2019-05-06T11:56:02.186Z,5.30
2019-05-06T11:58:56.128Z,7.43
2019-05-06T12:01:53.368Z,4.80
2019-05-06T12:04:23.229Z,10.33
2019-05-06T12:07:09.994Z,4.73
2019-05-06T12:09:23.923Z,6.93
2019-05-06T12:11:53.058Z,5.83
2019-05-06T12:14:22.794Z,6.03
2019-05-06T12:16:54.848Z,7.53
2019-05-06T12:19:22.655Z,6.43
2019-05-06T12:21:51.711Z,9.90
2019-05-06T12:24:20.227Z,6.40
2019-05-06T12:26:48.804Z,8.20
2019-05-06T12:29:17.518Z,7.30
2019-05-06T12:31:52.819Z,9.00
2019-05-06T12:34:20.884Z,8.40
2019-05-06T12:36:52.898Z,11.50
2019-05-06T12:39:44.079Z,8.20
2019-05-06T12:42:23.754Z,10.20
2019-05-06T12:45:14.681Z,8.20
2019-05-06T12:47:53.422Z,11.47
2019-05-06T12:50:22.755Z,8.50
2019-05-06T12:52:52.633Z,6.43
2019-05-06T12:55:25.313Z,6.77
2019-05-06T12:57:54.523Z,7.97
2019-05-06T13:00:24.329Z,10.60
2019-05-06T13:02:53.313Z,9.10
2019-05-06T13:05:22.315Z,7.97
2019-05-06T13:07:52.718Z,10.63
2019-05-06T13:10:23.268Z,8.27
2019-05-06T13:13:04.120Z,5.77
2019-05-06T13:15:32.913Z,9.67
2019-05-06T13:18:06.440Z,11.77
2019-05-06T13:20:34.184Z,9.90
2019-05-06T13:23:20.096Z,11.37
2019-05-06T13:25:44.839Z,8.97
2019-05-06T13:28:13.440Z,8.00
2019-05-06T13:30:43.316Z,9.60
2019-05-06T13:33:20.658Z,7.30
2019-05-06T13:35:49.655Z,11.83
2019-05-06T13:38:18.259Z,8.60
2019-05-06T13:40:53.996Z,8.50
2019-05-06T13:43:46.372Z,17.00
2019-05-06T13:46:23.155Z,10.03
2019-05-06T13:49:13.369Z,7.80
2019-05-06T13:51:45.798Z,5.30
2019-05-06T13:54:16.162Z,9.03
2019-05-06T13:56:45.253Z,6.97
2019-05-06T13:59:15.336Z,7.33
2019-05-06T14:02:16.284Z,6.10
2019-05-06T14:04:45.588Z,11.73
2019-05-06T14:07:14.285Z,8.93
2019-05-06T14:09:43.793Z,6.97
2019-05-06T14:12:12.526Z,12.33
2019-05-06T14:14:43.153Z,7.40
2019-05-06T14:17:12.788Z,9.80
2019-05-06T14:19:42.875Z,7.03
2019-05-06T14:22:12.674Z,7.27
2019-05-06T14:24:46.289Z,7.23
2019-05-06T14:27:17.665Z,6.80
2019-05-06T14:29:59.780Z,8.87
2019-05-06T14:32:28.286Z,8.63
2019-05-06T14:34:57.071Z,9.30
2019-05-06T14:37:25.597Z,9.13
2019-05-06T14:39:59.493Z,9.80
2019-05-06T14:42:26.416Z,8.87
2019-05-06T14:44:55.115Z,9.70
2019-05-06T14:47:26.005Z,8.43
2019-05-06T14:49:54.603Z,14.10
2019-05-06T14:52:23.125Z,7.70
2019-05-06T14:54:53.890Z,8.20
2019-05-06T14:57:23.429Z,7.70
2019-05-06T14:59:55.470Z,12.70
2019-05-06T15:02:26.647Z,8.77
2019-05-06T15:04:55.642Z,8.50
2019-05-06T15:07:24.151Z,8.90
2019-05-06T15:10:02.394Z,9.50
2019-05-06T15:12:23.593Z,9.10
2019-05-06T15:14:52.755Z,10.00
2019-05-06T15:17:22.958Z,10.07
2019-05-06T15:19:52.903Z,12.27
2019-05-06T15:22:22.558Z,8.63
2019-05-06T15:24:53.750Z,8.77
2019-05-06T15:27:22.856Z,7.90
2019-05-06T15:29:54.777Z,4.70
2019-05-06T15:32:32.841Z,6.03
2019-05-06T15:35:26.977Z,4.60
2019-05-06T15:38:02.230Z,3.20
2019-05-06T15:40:35.954Z,6.70
2019-05-06T15:43:02.294Z,4.77
2019-05-06T15:45:32.507Z,4.40
2019-05-06T15:48:02.675Z,2.90
2019-05-06T15:50:32.895Z,7.73
2019-05-06T15:53:01.986Z,5.73
2019-05-06T15:55:32.658Z,7.50
2019-05-06T15:58:03.424Z,3.20
2019-05-06T16:00:33.089Z,3.30
2019-05-06T16:03:02.662Z,3.70
2019-05-06T16:05:34.352Z,3.57
2019-05-06T16:08:02.849Z,3.37
2019-05-06T16:10:37.870Z,2.60
2019-05-06T16:13:02.524Z,2.43
2019-05-06T16:15:33.517Z,3.30
2019-05-06T16:18:04.080Z,4.40
2019-05-06T16:20:33.264Z,5.47
2019-05-06T16:23:27.597Z,10.77
2019-05-06T16:25:56.185Z,8.93
2019-05-06T16:28:24.929Z,8.27
2019-05-06T16:30:53.710Z,7.20
2019-05-06T16:33:22.631Z,9.10
2019-05-06T16:35:52.255Z,6.70
2019-05-06T16:38:23.023Z,8.50
2019-05-06T16:41:02.196Z,7.37
2019-05-06T16:43:22.283Z,5.93
2019-05-06T16:45:53.190Z,6.97
2019-05-06T16:48:22.567Z,6.03
2019-05-06T16:50:51.575Z,5.77
2019-05-06T16:53:20.382Z,8.40
2019-05-06T16:56:17.750Z,8.30
2019-05-06T16:58:52.686Z,10.27
2019-05-06T17:01:22.125Z,8.40
2019-05-06T17:04:09.751Z,4.60
2019-05-06T17:06:39.374Z,4.93
2019-05-06T17:09:20.068Z,5.20
2019-05-06T17:11:42.490Z,5.37
2019-05-06T17:14:12.277Z,4.27
2019-05-06T17:16:42.391Z,3.30
2019-05-06T17:19:12.672Z,4.90
2019-05-06T17:21:42.418Z,3.00
2019-05-06T17:24:13.102Z,3.73
2019-05-06T17:26:42.590Z,2.77
2019-05-06T17:29:19.338Z,7.07
2019-05-06T17:32:02.694Z,3.37
2019-05-06T17:34:34.250Z,5.10
2019-05-06T17:37:09.538Z,4.53
2019-05-06T17:39:38.217Z,5.63
2019-05-06T17:42:06.945Z,4.73
2019-05-06T17:44:35.564Z,5.17
2019-05-06T17:47:22.920Z,8.73
2019-05-06T17:49:52.918Z,5.47
2019-05-06T17:52:22.476Z,3.80
2019-05-06T17:54:52.803Z,5.03
2019-05-06T17:57:22.499Z,4.43
2019-05-06T17:59:52.813Z,4.40
2019-05-06T18:02:23.589Z,2.60
2019-05-06T18:04:53.274Z,3.03
2019-05-06T18:07:22.450Z,5.17
2019-05-06T18:09:52.197Z,3.20
2019-05-06T18:12:22.607Z,5.23
2019-05-06T18:14:54.115Z,2.40
2019-05-06T18:17:22.812Z,3.57
2019-05-06T18:19:51.363Z,2.77
2019-05-06T18:22:22.612Z,2.70
2019-05-06T18:24:52.566Z,2.40
2019-05-06T18:27:22.646Z,2.73
2019-05-06T18:29:53.244Z,3.83
2019-05-06T18:32:23.411Z,3.37
2019-05-06T18:34:55.202Z,3.17
2019-05-06T18:37:25.397Z,2.80
2019-05-06T18:39:54.196Z,2.77
2019-05-06T18:42:23.818Z,6.57
2019-05-06T18:44:52.477Z,2.37
2019-05-06T18:47:21.173Z,3.00
2019-05-06T18:49:52.264Z,3.40
2019-05-06T18:52:22.881Z,3.30
2019-05-06T18:54:52.641Z,3.27
2019-05-06T18:57:22.654Z,2.97
2019-05-06T18:59:53.492Z,2.97
2019-05-06T19:02:23.013Z,3.77
2019-05-06T19:05:07.971Z,2.87
2019-05-06T19:07:37.365Z,2.97
2019-05-06T19:10:12.852Z,3.83
2019-05-06T19:12:41.936Z,4.17
2019-05-06T19:15:12.624Z,3.97
2019-05-06T19:17:44.078Z,2.87
2019-05-06T19:20:12.753Z,4.37
2019-05-06T19:22:43.466Z,3.27
2019-05-06T19:25:14.628Z,5.43
2019-05-06T19:27:45.231Z,4.50
2019-05-06T19:30:14.208Z,4.60
2019-05-06T19:32:45.365Z,3.57
2019-05-06T19:35:14.415Z,3.73
2019-05-06T19:37:43.349Z,3.03
2019-05-06T19:40:12.637Z,3.70
2019-05-06T19:42:46.985Z,3.13
2019-05-06T19:45:13.018Z,5.43
2019-05-06T19:47:42.533Z,3.60
2019-05-06T19:50:11.335Z,8.37
2019-05-06T19:52:42.039Z,4.83
2019-05-06T19:55:12.370Z,4.53
2019-05-06T19:57:43.084Z,3.10
2019-05-06T20:00:12.541Z,4.00
2019-05-06T20:02:42.960Z,3.80
2019-05-06T20:05:22.658Z,4.53
2019-05-06T20:08:07.353Z,5.20
2019-05-06T20:10:58.479Z,4.23
2019-05-06T20:13:27.043Z,4.00
2019-05-06T20:15:55.633Z,5.67
2019-05-06T20:18:24.121Z,4.20
2019-05-06T20:20:52.948Z,4.47
2019-05-06T20:23:23.195Z,3.63
2019-05-06T20:25:52.211Z,3.50
2019-05-06T20:28:22.779Z,3.30
2019-05-06T20:30:52.889Z,3.23
2019-05-06T20:33:22.073Z,4.63
2019-05-06T20:35:52.546Z,4.20
2019-05-06T20:38:23.196Z,3.27
2019-05-06T20:40:51.798Z,2.40
2019-05-06T20:43:23.741Z,2.90
2019-05-06T20:45:52.137Z,2.40
2019-05-06T20:48:23.328Z,2.60
2019-05-06T20:50:52.426Z,2.07
2019-05-06T20:53:23.215Z,2.20
2019-05-06T20:55:53.183Z,2.13
2019-05-06T20:58:23.122Z,2.17
2019-05-06T21:00:52.333Z,2.10
2019-05-06T21:03:22.163Z,2.37
2019-05-06T21:05:51.394Z,2.30
2019-05-06T21:08:21.932Z,2.30
2019-05-06T21:10:52.880Z,3.43
2019-05-06T21:13:31.758Z,2.70
2019-05-06T21:15:52.979Z,3.67
2019-05-06T21:18:22.914Z,2.50
2019-05-06T21:20:52.105Z,2.47
2019-05-06T21:23:22.705Z,2.63
2019-05-06T21:25:52.332Z,3.50
2019-05-06T21:28:23.571Z,2.83
2019-05-06T21:30:52.362Z,2.00
2019-05-06T21:33:22.124Z,1.60
2019-05-06T21:35:52.225Z,2.57
2019-05-06T21:38:22.670Z,1.60
2019-05-06T21:40:52.588Z,1.50
2019-05-06T21:43:22.655Z,1.83
2019-05-06T21:45:51.502Z,1.40
2019-05-06T21:48:22.079Z,1.40
2019-05-06T21:50:52.246Z,2.13
2019-05-06T21:53:22.905Z,2.63
2019-05-06T21:55:52.519Z,1.63
2019-05-06T21:58:23.203Z,2.37
2019-05-06T22:01:03.887Z,2.73
2019-05-06T22:03:32.945Z,2.53
2019-05-06T22:06:02.392Z,5.10
2019-05-06T22:08:32.849Z,3.00
2019-05-06T22:11:02.948Z,4.30
2019-05-06T22:13:33.262Z,4.17
2019-05-06T22:16:04.649Z,4.83
2019-05-06T22:18:32.425Z,8.10
2019-05-06T22:21:23.059Z,5.17
2019-05-06T22:23:57.010Z,2.97
2019-05-06T22:26:25.839Z,5.97
2019-05-06T22:28:55.005Z,5.03
2019-05-06T22:31:24.572Z,5.87
2019-05-06T22:33:53.449Z,3.50
2019-05-06T22:36:22.742Z,4.10
2019-05-06T22:38:53.073Z,6.50
2019-05-06T22:41:24.840Z,7.40
2019-05-06T22:43:53.172Z,5.63
2019-05-06T22:46:23.405Z,6.03
2019-05-06T22:48:54.521Z,3.97
2019-05-06T22:51:23.426Z,4.90
2019-05-06T22:53:53.192Z,4.20
2019-05-06T22:56:22.863Z,2.93
2019-05-06T22:58:52.396Z,4.40
2019-05-06T23:01:58.490Z,3.83
2019-05-06T23:04:28.912Z,3.70
2019-05-06T23:06:57.398Z,3.17
2019-05-06T23:09:25.869Z,2.87
2019-05-06T23:11:54.466Z,4.20
2019-05-06T23:14:30.774Z,4.47
2019-05-06T23:16:53.378Z,3.70
2019-05-06T23:19:24.285Z,3.53
2019-05-06T23:21:53.287Z,1.77
2019-05-06T23:24:22.494Z,2.60
2019-05-06T23:26:54.285Z,5.13
2019-05-06T23:29:22.441Z,2.03
2019-05-06T23:31:52.214Z,2.47
2019-05-06T23:34:22.948Z,4.27
2019-05-06T23:37:17.158Z,2.80
2019-05-06T23:40:22.386Z,2.23
2019-05-06T23:43:27.848Z,2.50
2019-05-06T23:46:32.828Z,1.70
2019-05-06T23:49:39.453Z,2.77
2019-05-06T23:52:44.385Z,3.13
2019-05-06T23:55:51.816Z,3.27
2019-05-06T23:58:18.930Z,2.43
